sensor_id;sensor_type;location;lat;lon;timestamp;P1;durP1;ratioP1;P2;durP2;ratioP2
30249;SDS011;17064;47.974;13.826;2022-11-12T00:00:16;14.95;;;9.30;;
30249;SDS011;17064;47.974;13.826;2022-11-12T00:05:17;13.32;;;9.18;;
30249;SDS011;17064;47.974;13.826;2022-11-12T00:10:18;14.60;;;9.40;;
30249;SDS011;17064;47.974;13.826;2022-11-12T00:15:19;13.85;;;8.90;;
30249;SDS011;17064;47.974;13.826;2022-11-12T00:20:20;10.13;;;6.88;;
30249;SDS011;17064;47.974;13.826;2022-11-12T00:25:21;13.43;;;7.00;;
30249;SDS011;17064;47.974;13.826;2022-11-12T00:30:21;9.35;;;6.97;;
30249;SDS011;17064;47.974;13.826;2022-11-12T00:35:22;12.57;;;6.45;;
30249;SDS011;17064;47.974;13.826;2022-11-12T00:40:23;13.85;;;7.28;;
30249;SDS011;17064;47.974;13.826;2022-11-12T00:45:24;9.02;;;5.85;;
30249;SDS011;17064;47.974;13.826;2022-11-12T00:50:25;6.93;;;5.40;;
30249;SDS011;17064;47.974;13.826;2022-11-12T00:55:26;10.30;;;6.25;;
30249;SDS011;17064;47.974;13.826;2022-11-12T01:00:26;8.80;;;6.32;;
30249;SDS011;17064;47.974;13.826;2022-11-12T01:05:27;12.88;;;6.50;;
30249;SDS011;17064;47.974;13.826;2022-11-12T01:10:28;10.80;;;6.72;;
30249;SDS011;17064;47.974;13.826;2022-11-12T01:15:28;11.90;;;7.65;;
30249;SDS011;17064;47.974;13.826;2022-11-12T01:20:29;10.07;;;6.88;;
30249;SDS011;17064;47.974;13.826;2022-11-12T01:25:30;10.98;;;7.00;;
30249;SDS011;17064;47.974;13.826;2022-11-12T01:30:30;11.73;;;7.25;;
30249;SDS011;17064;47.974;13.826;2022-11-12T01:35:31;11.05;;;7.55;;
30249;SDS011;17064;47.974;13.826;2022-11-12T01:40:32;8.65;;;6.75;;
30249;SDS011;17064;47.974;13.826;2022-11-12T01:45:32;10.88;;;6.88;;
30249;SDS011;17064;47.974;13.826;2022-11-12T01:50:33;9.90;;;6.72;;
30249;SDS011;17064;47.974;13.826;2022-11-12T01:55:36;7.90;;;5.17;;
30249;SDS011;17064;47.974;13.826;2022-11-12T02:00:38;8.88;;;6.45;;
30249;SDS011;17064;47.974;13.826;2022-11-12T02:05:40;8.98;;;6.70;;
30249;SDS011;17064;47.974;13.826;2022-11-12T02:10:41;11.02;;;7.15;;
30249;SDS011;17064;47.974;13.826;2022-11-12T02:15:42;10.43;;;6.55;;
30249;SDS011;17064;47.974;13.826;2022-11-12T02:20:43;10.45;;;7.07;;
30249;SDS011;17064;47.974;13.826;2022-11-12T02:25:44;8.93;;;5.70;;
30249;SDS011;17064;47.974;13.826;2022-11-12T02:30:46;11.20;;;6.90;;
30249;SDS011;17064;47.974;13.826;2022-11-12T02:35:48;8.15;;;6.32;;
30249;SDS011;17064;47.974;13.826;2022-11-12T02:40:48;8.98;;;5.72;;
30249;SDS011;17064;47.974;13.826;2022-11-12T02:45:50;8.95;;;5.85;;
30249;SDS011;17064;47.974;13.826;2022-11-12T02:50:51;8.50;;;5.88;;
30249;SDS011;17064;47.974;13.826;2022-11-12T02:55:51;8.05;;;5.60;;
30249;SDS011;17064;47.974;13.826;2022-11-12T03:00:52;8.30;;;5.82;;
30249;SDS011;17064;47.974;13.826;2022-11-12T03:05:54;7.57;;;5.68;;
30249;SDS011;17064;47.974;13.826;2022-11-12T03:11:04;9.75;;;6.30;;
30249;SDS011;17064;47.974;13.826;2022-11-12T03:16:06;8.20;;;5.55;;
30249;SDS011;17064;47.974;13.826;2022-11-12T03:21:07;7.93;;;5.85;;
30249;SDS011;17064;47.974;13.826;2022-11-12T03:26:08;8.27;;;6.07;;
30249;SDS011;17064;47.974;13.826;2022-11-12T03:31:08;7.35;;;5.32;;
30249;SDS011;17064;47.974;13.826;2022-11-12T03:36:10;8.32;;;5.38;;
30249;SDS011;17064;47.974;13.826;2022-11-12T03:41:11;9.45;;;5.82;;
30249;SDS011;17064;47.974;13.826;2022-11-12T03:46:12;8.05;;;5.80;;
30249;SDS011;17064;47.974;13.826;2022-11-12T03:51:13;7.45;;;5.78;;
30249;SDS011;17064;47.974;13.826;2022-11-12T03:56:15;7.57;;;5.05;;
30249;SDS011;17064;47.974;13.826;2022-11-12T04:01:16;7.95;;;5.43;;
30249;SDS011;17064;47.974;13.826;2022-11-12T04:06:16;7.45;;;5.60;;
30249;SDS011;17064;47.974;13.826;2022-11-12T04:11:35;11.55;;;5.88;;
30249;SDS011;17064;47.974;13.826;2022-11-12T04:16:36;8.55;;;5.80;;
30249;SDS011;17064;47.974;13.826;2022-11-12T04:22:05;7.93;;;5.45;;
30249;SDS011;17064;47.974;13.826;2022-11-12T04:27:09;7.95;;;5.88;;
30249;SDS011;17064;47.974;13.826;2022-11-12T04:32:14;11.00;;;6.40;;
30249;SDS011;17064;47.974;13.826;2022-11-12T04:37:15;12.02;;;6.38;;
30249;SDS011;17064;47.974;13.826;2022-11-12T04:42:17;10.15;;;6.28;;
30249;SDS011;17064;47.974;13.826;2022-11-12T04:47:38;10.20;;;6.63;;
30249;SDS011;17064;47.974;13.826;2022-11-12T04:52:40;15.33;;;6.27;;
30249;SDS011;17064;47.974;13.826;2022-11-12T04:57:40;14.63;;;6.20;;
30249;SDS011;17064;47.974;13.826;2022-11-12T05:02:41;11.43;;;6.38;;
30249;SDS011;17064;47.974;13.826;2022-11-12T05:07:42;11.70;;;5.72;;
30249;SDS011;17064;47.974;13.826;2022-11-12T05:12:42;11.57;;;6.40;;
30249;SDS011;17064;47.974;13.826;2022-11-12T05:17:43;7.63;;;4.55;;
30249;SDS011;17064;47.974;13.826;2022-11-12T05:22:44;5.55;;;3.95;;
30249;SDS011;17064;47.974;13.826;2022-11-12T05:27:45;6.47;;;4.60;;
30249;SDS011;17064;47.974;13.826;2022-11-12T05:32:46;7.50;;;4.90;;
30249;SDS011;17064;47.974;13.826;2022-11-12T05:37:46;8.70;;;4.40;;
30249;SDS011;17064;47.974;13.826;2022-11-12T05:42:47;8.75;;;4.82;;
30249;SDS011;17064;47.974;13.826;2022-11-12T05:47:48;7.63;;;5.32;;
30249;SDS011;17064;47.974;13.826;2022-11-12T05:52:48;13.77;;;5.22;;
30249;SDS011;17064;47.974;13.826;2022-11-12T05:57:49;9.80;;;5.55;;
30249;SDS011;17064;47.974;13.826;2022-11-12T06:02:50;8.85;;;5.00;;
30249;SDS011;17064;47.974;13.826;2022-11-12T06:07:50;8.15;;;5.30;;
30249;SDS011;17064;47.974;13.826;2022-11-12T06:12:51;8.10;;;5.15;;
30249;SDS011;17064;47.974;13.826;2022-11-12T06:17:52;10.30;;;5.40;;
30249;SDS011;17064;47.974;13.826;2022-11-12T06:22:53;10.40;;;5.45;;
30249;SDS011;17064;47.974;13.826;2022-11-12T06:27:55;7.85;;;5.55;;
30249;SDS011;17064;47.974;13.826;2022-11-12T06:32:56;10.57;;;5.50;;
30249;SDS011;17064;47.974;13.826;2022-11-12T06:37:56;8.88;;;4.90;;
30249;SDS011;17064;47.974;13.826;2022-11-12T06:42:57;8.75;;;5.18;;
30249;SDS011;17064;47.974;13.826;2022-11-12T06:47:58;9.00;;;4.55;;
30249;SDS011;17064;47.974;13.826;2022-11-12T06:52:59;7.68;;;4.30;;
30249;SDS011;17064;47.974;13.826;2022-11-12T06:57:59;6.80;;;5.03;;
30249;SDS011;17064;47.974;13.826;2022-11-12T07:03:04;9.90;;;6.65;;
30249;SDS011;17064;47.974;13.826;2022-11-12T07:08:08;9.80;;;6.07;;
30249;SDS011;17064;47.974;13.826;2022-11-12T07:13:09;10.90;;;6.18;;
30249;SDS011;17064;47.974;13.826;2022-11-12T07:18:11;13.38;;;6.63;;
30249;SDS011;17064;47.974;13.826;2022-11-12T07:23:12;15.88;;;7.50;;
30249;SDS011;17064;47.974;13.826;2022-11-12T07:28:12;21.05;;;8.88;;
30249;SDS011;17064;47.974;13.826;2022-11-12T07:33:13;21.23;;;8.77;;
30249;SDS011;17064;47.974;13.826;2022-11-12T07:38:14;28.55;;;10.98;;
30249;SDS011;17064;47.974;13.826;2022-11-12T07:43:14;37.00;;;12.43;;
30249;SDS011;17064;47.974;13.826;2022-11-12T07:48:15;41.45;;;16.10;;
30249;SDS011;17064;47.974;13.826;2022-11-12T07:53:16;40.38;;;13.48;;
30249;SDS011;17064;47.974;13.826;2022-11-12T07:58:17;36.20;;;15.45;;
30249;SDS011;17064;47.974;13.826;2022-11-12T08:03:17;41.53;;;17.42;;
30249;SDS011;17064;47.974;13.826;2022-11-12T08:08:19;28.30;;;13.98;;
30249;SDS011;17064;47.974;13.826;2022-11-12T08:13:19;28.10;;;14.52;;
30249;SDS011;17064;47.974;13.826;2022-11-12T08:18:20;28.98;;;13.95;;
30249;SDS011;17064;47.974;13.826;2022-11-12T08:23:21;37.85;;;18.35;;
30249;SDS011;17064;47.974;13.826;2022-11-12T08:28:22;38.28;;;18.02;;
30249;SDS011;17064;47.974;13.826;2022-11-12T08:33:23;35.15;;;18.50;;
30249;SDS011;17064;47.974;13.826;2022-11-12T08:38:23;48.90;;;19.20;;
30249;SDS011;17064;47.974;13.826;2022-11-12T08:43:24;46.03;;;20.50;;
30249;SDS011;17064;47.974;13.826;2022-11-12T08:48:25;37.17;;;17.00;;
30249;SDS011;17064;47.974;13.826;2022-11-12T08:53:27;131.68;;;21.10;;
30249;SDS011;17064;47.974;13.826;2022-11-12T08:58:27;79.75;;;18.42;;
30249;SDS011;17064;47.974;13.826;2022-11-12T09:03:28;36.92;;;18.20;;
30249;SDS011;17064;47.974;13.826;2022-11-12T09:08:29;42.35;;;19.98;;
30249;SDS011;17064;47.974;13.826;2022-11-12T09:13:33;43.95;;;20.88;;
30249;SDS011;17064;47.974;13.826;2022-11-12T09:18:34;55.20;;;22.83;;
30249;SDS011;17064;47.974;13.826;2022-11-12T09:23:36;54.97;;;23.55;;
30249;SDS011;17064;47.974;13.826;2022-11-12T09:28:37;72.18;;;24.85;;
30249;SDS011;17064;47.974;13.826;2022-11-12T09:33:37;62.83;;;24.27;;
30249;SDS011;17064;47.974;13.826;2022-11-12T09:38:38;51.65;;;23.65;;
30249;SDS011;17064;47.974;13.826;2022-11-12T09:43:44;58.13;;;26.25;;
30249;SDS011;17064;47.974;13.826;2022-11-12T09:48:52;62.10;;;27.08;;
30249;SDS011;17064;47.974;13.826;2022-11-12T09:59:19;48.92;;;18.83;;
30249;SDS011;17064;47.974;13.826;2022-11-12T10:15:35;31.95;;;17.85;;
30249;SDS011;17064;47.974;13.826;2022-11-12T10:26:38;28.27;;;13.50;;
30249;SDS011;17064;47.974;13.826;2022-11-12T10:31:39;31.52;;;14.90;;
30249;SDS011;17064;47.974;13.826;2022-11-12T10:36:42;27.10;;;13.35;;
30249;SDS011;17064;47.974;13.826;2022-11-12T10:41:46;23.08;;;11.27;;
30249;SDS011;17064;47.974;13.826;2022-11-12T10:47:15;23.20;;;11.45;;
30249;SDS011;17064;47.974;13.826;2022-11-12T10:52:22;19.58;;;10.48;;
30249;SDS011;17064;47.974;13.826;2022-11-12T10:57:25;18.00;;;9.75;;
30249;SDS011;17064;47.974;13.826;2022-11-12T11:02:26;15.10;;;8.07;;
30249;SDS011;17064;47.974;13.826;2022-11-12T11:07:27;19.33;;;9.60;;
30249;SDS011;17064;47.974;13.826;2022-11-12T11:12:32;19.00;;;9.02;;
30249;SDS011;17064;47.974;13.826;2022-11-12T11:17:33;14.82;;;8.10;;
30249;SDS011;17064;47.974;13.826;2022-11-12T11:22:40;16.38;;;8.63;;
30249;SDS011;17064;47.974;13.826;2022-11-12T11:27:59;15.18;;;7.70;;
30249;SDS011;17064;47.974;13.826;2022-11-12T11:38:44;11.80;;;6.90;;
30249;SDS011;17064;47.974;13.826;2022-11-12T12:00:17;11.25;;;6.63;;
30249;SDS011;17064;47.974;13.826;2022-11-12T12:21:34;7.90;;;5.20;;
30249;SDS011;17064;47.974;13.826;2022-11-12T12:26:45;9.25;;;5.72;;
30249;SDS011;17064;47.974;13.826;2022-11-12T12:31:59;8.85;;;5.40;;
30249;SDS011;17064;47.974;13.826;2022-11-12T12:37:45;9.68;;;5.18;;
30249;SDS011;17064;47.974;13.826;2022-11-12T12:42:27;9.20;;;5.05;;
30249;SDS011;17064;47.974;13.826;2022-11-12T12:47:37;6.75;;;4.40;;
30249;SDS011;17064;47.974;13.826;2022-11-12T12:53:00;7.40;;;4.78;;
30249;SDS011;17064;47.974;13.826;2022-11-12T12:58:03;7.57;;;4.60;;
30249;SDS011;17064;47.974;13.826;2022-11-12T13:03:04;7.28;;;4.40;;
30249;SDS011;17064;47.974;13.826;2022-11-12T13:08:18;7.60;;;5.03;;
30249;SDS011;17064;47.974;13.826;2022-11-12T13:13:25;7.70;;;4.55;;
30249;SDS011;17064;47.974;13.826;2022-11-12T13:23:42;9.07;;;4.78;;
30249;SDS011;17064;47.974;13.826;2022-11-12T13:34:22;5.75;;;4.28;;
30249;SDS011;17064;47.974;13.826;2022-11-12T13:39:31;5.45;;;3.58;;
30249;SDS011;17064;47.974;13.826;2022-11-12T13:44:34;4.32;;;3.47;;
30249;SDS011;17064;47.974;13.826;2022-11-12T13:49:35;6.22;;;3.83;;
30249;SDS011;17064;47.974;13.826;2022-11-12T13:54:37;5.78;;;4.15;;
30249;SDS011;17064;47.974;13.826;2022-11-12T13:59:38;5.55;;;3.78;;
30249;SDS011;17064;47.974;13.826;2022-11-12T14:04:39;6.20;;;4.68;;
30249;SDS011;17064;47.974;13.826;2022-11-12T14:09:53;6.35;;;4.97;;
30249;SDS011;17064;47.974;13.826;2022-11-12T14:20:25;11.45;;;6.78;;
30249;SDS011;17064;47.974;13.826;2022-11-12T14:25:31;9.05;;;6.70;;
30249;SDS011;17064;47.974;13.826;2022-11-12T14:30:32;8.35;;;5.90;;
30249;SDS011;17064;47.974;13.826;2022-11-12T14:40:36;9.48;;;6.30;;
30249;SDS011;17064;47.974;13.826;2022-11-12T14:45:46;9.93;;;6.40;;
30249;SDS011;17064;47.974;13.826;2022-11-12T14:50:53;11.18;;;6.18;;
30249;SDS011;17064;47.974;13.826;2022-11-12T14:55:57;10.73;;;6.47;;
30249;SDS011;17064;47.974;13.826;2022-11-12T15:01:17;9.98;;;6.00;;
30249;SDS011;17064;47.974;13.826;2022-11-12T15:06:30;11.60;;;6.43;;
30249;SDS011;17064;47.974;13.826;2022-11-12T15:11:35;10.50;;;6.85;;
30249;SDS011;17064;47.974;13.826;2022-11-12T15:16:43;12.60;;;7.72;;
30249;SDS011;17064;47.974;13.826;2022-11-12T15:21:45;15.50;;;7.55;;
30249;SDS011;17064;47.974;13.826;2022-11-12T15:26:47;14.25;;;7.80;;
30249;SDS011;17064;47.974;13.826;2022-11-12T15:31:51;12.15;;;7.97;;
30249;SDS011;17064;47.974;13.826;2022-11-12T15:36:54;10.93;;;7.43;;
30249;SDS011;17064;47.974;13.826;2022-11-12T15:42:03;10.43;;;7.30;;
30249;SDS011;17064;47.974;13.826;2022-11-12T15:47:17;15.70;;;8.00;;
30249;SDS011;17064;47.974;13.826;2022-11-12T15:52:22;12.57;;;8.63;;
30249;SDS011;17064;47.974;13.826;2022-11-12T15:57:24;18.90;;;9.52;;
30249;SDS011;17064;47.974;13.826;2022-11-12T16:02:28;14.18;;;8.65;;
30249;SDS011;17064;47.974;13.826;2022-11-12T16:07:29;14.13;;;9.00;;
30249;SDS011;17064;47.974;13.826;2022-11-12T16:12:30;12.63;;;7.82;;
30249;SDS011;17064;47.974;13.826;2022-11-12T16:17:31;15.63;;;9.15;;
30249;SDS011;17064;47.974;13.826;2022-11-12T16:22:31;17.50;;;9.05;;
30249;SDS011;17064;47.974;13.826;2022-11-12T16:27:32;15.07;;;9.77;;
30249;SDS011;17064;47.974;13.826;2022-11-12T16:32:33;15.40;;;9.75;;
30249;SDS011;17064;47.974;13.826;2022-11-12T16:37:34;15.65;;;9.50;;
30249;SDS011;17064;47.974;13.826;2022-11-12T16:42:37;15.25;;;9.07;;
30249;SDS011;17064;47.974;13.826;2022-11-12T16:47:45;20.25;;;10.40;;
30249;SDS011;17064;47.974;13.826;2022-11-12T16:52:48;17.45;;;11.15;;
30249;SDS011;17064;47.974;13.826;2022-11-12T16:57:49;17.88;;;10.65;;
30249;SDS011;17064;47.974;13.826;2022-11-12T17:02:50;21.30;;;11.95;;
30249;SDS011;17064;47.974;13.826;2022-11-12T17:07:55;20.77;;;12.02;;
30249;SDS011;17064;47.974;13.826;2022-11-12T17:12:56;21.35;;;11.55;;
30249;SDS011;17064;47.974;13.826;2022-11-12T17:17:57;20.77;;;10.90;;
30249;SDS011;17064;47.974;13.826;2022-11-12T17:22:58;20.08;;;12.20;;
30249;SDS011;17064;47.974;13.826;2022-11-12T17:27:59;23.60;;;12.15;;
30249;SDS011;17064;47.974;13.826;2022-11-12T17:33:00;22.25;;;12.25;;
30249;SDS011;17064;47.974;13.826;2022-11-12T17:38:01;19.95;;;11.65;;
30249;SDS011;17064;47.974;13.826;2022-11-12T17:43:01;20.08;;;11.43;;
30249;SDS011;17064;47.974;13.826;2022-11-12T17:48:02;20.35;;;11.27;;
30249;SDS011;17064;47.974;13.826;2022-11-12T17:53:03;23.00;;;11.68;;
30249;SDS011;17064;47.974;13.826;2022-11-12T17:58:04;19.17;;;12.15;;
30249;SDS011;17064;47.974;13.826;2022-11-12T18:03:05;20.13;;;11.13;;
30249;SDS011;17064;47.974;13.826;2022-11-12T18:08:06;30.25;;;15.70;;
30249;SDS011;17064;47.974;13.826;2022-11-12T18:13:07;35.30;;;18.17;;
30249;SDS011;17064;47.974;13.826;2022-11-12T18:18:08;23.90;;;13.63;;
30249;SDS011;17064;47.974;13.826;2022-11-12T18:23:09;18.52;;;10.23;;
30249;SDS011;17064;47.974;13.826;2022-11-12T18:28:10;19.95;;;12.02;;
30249;SDS011;17064;47.974;13.826;2022-11-12T18:33:12;19.20;;;12.23;;
30249;SDS011;17064;47.974;13.826;2022-11-12T18:38:12;19.00;;;10.07;;
30249;SDS011;17064;47.974;13.826;2022-11-12T18:43:13;17.65;;;9.90;;
30249;SDS011;17064;47.974;13.826;2022-11-12T18:48:14;15.07;;;9.15;;
30249;SDS011;17064;47.974;13.826;2022-11-12T18:53:15;12.98;;;8.23;;
30249;SDS011;17064;47.974;13.826;2022-11-12T18:58:16;14.77;;;8.77;;
30249;SDS011;17064;47.974;13.826;2022-11-12T19:03:18;14.95;;;8.85;;
30249;SDS011;17064;47.974;13.826;2022-11-12T19:08:18;14.57;;;9.35;;
30249;SDS011;17064;47.974;13.826;2022-11-12T19:13:19;27.05;;;11.48;;
30249;SDS011;17064;47.974;13.826;2022-11-12T19:18:21;36.47;;;18.85;;
30249;SDS011;17064;47.974;13.826;2022-11-12T19:23:22;38.33;;;17.02;;
30249;SDS011;17064;47.974;13.826;2022-11-12T19:28:23;34.65;;;16.73;;
30249;SDS011;17064;47.974;13.826;2022-11-12T19:33:23;30.17;;;15.50;;
30249;SDS011;17064;47.974;13.826;2022-11-12T19:38:24;24.85;;;14.18;;
30249;SDS011;17064;47.974;13.826;2022-11-12T19:43:26;25.60;;;14.38;;
30249;SDS011;17064;47.974;13.826;2022-11-12T19:48:27;23.33;;;14.00;;
30249;SDS011;17064;47.974;13.826;2022-11-12T19:53:33;20.90;;;12.55;;
30249;SDS011;17064;47.974;13.826;2022-11-12T19:58:35;21.08;;;10.82;;
30249;SDS011;17064;47.974;13.826;2022-11-12T20:03:36;21.00;;;11.40;;
30249;SDS011;17064;47.974;13.826;2022-11-12T20:08:38;24.20;;;13.25;;
30249;SDS011;17064;47.974;13.826;2022-11-12T20:13:39;29.42;;;14.75;;
30249;SDS011;17064;47.974;13.826;2022-11-12T20:18:40;30.70;;;16.40;;
30249;SDS011;17064;47.974;13.826;2022-11-12T20:23:41;30.92;;;16.20;;
30249;SDS011;17064;47.974;13.826;2022-11-12T20:28:42;28.25;;;15.88;;
30249;SDS011;17064;47.974;13.826;2022-11-12T20:33:43;19.80;;;12.98;;
30249;SDS011;17064;47.974;13.826;2022-11-12T20:38:44;19.65;;;12.10;;
30249;SDS011;17064;47.974;13.826;2022-11-12T20:43:46;20.15;;;12.45;;
30249;SDS011;17064;47.974;13.826;2022-11-12T20:48:51;21.70;;;12.73;;
30249;SDS011;17064;47.974;13.826;2022-11-12T20:53:54;20.73;;;12.85;;
30249;SDS011;17064;47.974;13.826;2022-11-12T20:58:56;23.05;;;13.10;;
30249;SDS011;17064;47.974;13.826;2022-11-12T21:03:58;23.52;;;12.82;;
30249;SDS011;17064;47.974;13.826;2022-11-12T21:08:59;21.40;;;13.88;;
30249;SDS011;17064;47.974;13.826;2022-11-12T21:13:59;21.80;;;12.85;;
30249;SDS011;17064;47.974;13.826;2022-11-12T21:19:01;17.35;;;11.40;;
30249;SDS011;17064;47.974;13.826;2022-11-12T21:24:04;15.98;;;11.38;;
30249;SDS011;17064;47.974;13.826;2022-11-12T21:29:05;16.75;;;10.85;;
30249;SDS011;17064;47.974;13.826;2022-11-12T21:34:08;17.35;;;11.43;;
30249;SDS011;17064;47.974;13.826;2022-11-12T21:39:09;15.07;;;10.13;;
30249;SDS011;17064;47.974;13.826;2022-11-12T21:44:11;14.23;;;9.65;;
30249;SDS011;17064;47.974;13.826;2022-11-12T21:49:11;14.52;;;10.75;;
30249;SDS011;17064;47.974;13.826;2022-11-12T21:54:12;15.98;;;10.82;;
30249;SDS011;17064;47.974;13.826;2022-11-12T21:59:14;16.65;;;10.98;;
30249;SDS011;17064;47.974;13.826;2022-11-12T22:04:14;14.02;;;9.70;;
30249;SDS011;17064;47.974;13.826;2022-11-12T22:09:15;12.25;;;9.10;;
30249;SDS011;17064;47.974;13.826;2022-11-12T22:14:16;13.73;;;9.95;;
30249;SDS011;17064;47.974;13.826;2022-11-12T22:19:16;9.60;;;8.13;;
30249;SDS011;17064;47.974;13.826;2022-11-12T22:24:20;11.10;;;8.63;;
30249;SDS011;17064;47.974;13.826;2022-11-12T22:29:21;11.45;;;8.40;;
30249;SDS011;17064;47.974;13.826;2022-11-12T22:34:21;9.95;;;7.60;;
30249;SDS011;17064;47.974;13.826;2022-11-12T22:39:22;10.52;;;7.90;;
30249;SDS011;17064;47.974;13.826;2022-11-12T22:44:23;11.07;;;8.80;;
30249;SDS011;17064;47.974;13.826;2022-11-12T22:49:24;10.32;;;8.50;;
30249;SDS011;17064;47.974;13.826;2022-11-12T22:54:24;9.80;;;7.78;;
30249;SDS011;17064;47.974;13.826;2022-11-12T22:59:25;11.40;;;7.72;;
30249;SDS011;17064;47.974;13.826;2022-11-12T23:04:26;8.75;;;7.43;;
30249;SDS011;17064;47.974;13.826;2022-11-12T23:09:26;9.73;;;7.32;;
30249;SDS011;17064;47.974;13.826;2022-11-12T23:14:27;9.77;;;7.60;;
30249;SDS011;17064;47.974;13.826;2022-11-12T23:19:28;10.43;;;7.75;;
30249;SDS011;17064;47.974;13.826;2022-11-12T23:24:28;9.73;;;7.22;;
30249;SDS011;17064;47.974;13.826;2022-11-12T23:29:29;10.25;;;7.07;;
30249;SDS011;17064;47.974;13.826;2022-11-12T23:34:30;8.48;;;6.75;;
30249;SDS011;17064;47.974;13.826;2022-11-12T23:39:32;9.63;;;6.80;;
30249;SDS011;17064;47.974;13.826;2022-11-12T23:44:33;9.25;;;6.55;;
30249;SDS011;17064;47.974;13.826;2022-11-12T23:49:34;10.10;;;6.60;;
30249;SDS011;17064;47.974;13.826;2022-11-12T23:54:34;9.88;;;6.53;;
30249;SDS011;17064;47.974;13.826;2022-11-12T23:59:35;8.30;;;6.10;;
